Time;durP1;ratioP1;P1;durP2;ratioP2;P2;SDS_P1;SDS_P2;PMS_P1;PMS_P2;Temp;Humidity;BMP_temperature;BMP_pressure;BME280_temperature;BME280_humidity;BME280_pressure;Samples;Min_cycle;Max_cycle;Signal;HPM_P1;HPM_P2
2023/07/05 00:01:41;;;;;;;6.63;3.72;;;16.70;71.80;;;;;;5054291;28;20517;-66
2023/07/05 00:04:07;;;;;;;7.63;3.83;;;16.60;71.60;;;;;;5053691;28;20043;-66
2023/07/05 00:06:32;;;;;;;9.05;4.28;;;16.70;71.80;;;;;;5054242;28;20487;-66
2023/07/05 00:08:58;;;;;;;7.93;3.83;;;16.70;71.70;;;;;;5053599;28;20040;-66
2023/07/05 00:11:24;;;;;;;7.20;4.35;;;16.70;71.60;;;;;;5054026;28;20032;-66
2023/07/05 00:13:50;;;;;;;7.80;4.50;;;16.70;71.70;;;;;;5053600;28;20415;-66
2023/07/05 00:16:15;;;;;;;7.97;3.63;;;16.70;71.80;;;;;;5053955;28;20053;-66
2023/07/05 00:18:41;;;;;;;8.15;4.90;;;16.70;71.80;;;;;;5053637;28;20044;-66
2023/07/05 00:21:09;;;;;;;8.70;5.25;;;16.70;71.80;;;;;;5053990;28;20416;-66
2023/07/05 00:23:36;;;;;;;10.23;5.50;;;16.60;71.90;;;;;;5037169;28;20040;-66
2023/07/05 00:26:03;;;;;;;12.68;6.05;;;16.60;72.30;;;;;;5071597;28;20400;-66
2023/07/05 00:28:29;;;;;;;7.93;5.20;;;16.50;72.40;;;;;;5053848;28;20032;-66
2023/07/05 00:30:55;;;;;;;12.00;5.60;;;16.50;72.50;;;;;;5053267;28;20123;-66
2023/07/05 00:33:21;;;;;;;9.75;5.35;;;16.50;72.80;;;;;;5053487;28;20054;-66
2023/07/05 00:35:52;;;;;;;12.90;5.78;;;16.40;72.90;;;;;;5036747;28;20033;-66
2023/07/05 00:38:19;;;;;;;11.18;6.07;;;16.40;73.10;;;;;;5071472;28;20040;-66
2023/07/05 00:40:46;;;;;;;9.82;5.68;;;16.30;73.10;;;;;;5053455;28;20451;-66
2023/07/05 00:43:13;;;;;;;11.43;5.57;;;16.30;73.30;;;;;;5053498;28;20048;-66
2023/07/05 00:45:53;;;;;;;8.27;5.65;;;16.30;73.40;;;;;;5052952;28;20098;-66
2023/07/05 00:48:25;;;;;;;10.88;5.47;;;16.20;73.60;;;;;;5053533;28;20067;-66
2023/07/05 00:50:55;;;;;;;9.40;5.20;;;16.20;73.80;;;;;;5051189;28;20494;-66
2023/07/05 00:53:23;;;;;;;9.35;5.35;;;16.20;74.00;;;;;;5053258;28;20043;-66
2023/07/05 00:56:04;;;;;;;11.70;6.60;;;16.10;74.20;;;;;;5053297;28;20040;-66
2023/07/05 00:58:30;;;;;;;13.90;6.15;;;16.10;74.60;;;;;;5052780;28;20043;-66
2023/07/05 01:00:56;;;;;;;11.93;6.50;;;16.10;74.90;;;;;;5052781;28;20054;-66
2023/07/05 01:03:24;;;;;;;13.20;6.57;;;16.10;75.30;;;;;;5053245;28;20036;-66
2023/07/05 01:05:54;;;;;;;11.35;6.90;;;16.00;75.70;;;;;;5053307;28;20094;-67
2023/07/05 01:08:19;;;;;;;12.05;6.72;;;15.90;76.00;;;;;;5053310;28;20127;-67
2023/07/05 01:10:52;;;;;;;9.90;6.45;;;15.90;76.40;;;;;;5036656;28;20143;-67
2023/07/05 01:13:52;;;;;;;10.60;6.20;;;15.90;76.90;;;;;;5053079;28;20068;-67
2023/07/05 01:16:39;;;;;;;13.65;7.43;;;15.80;77.20;;;;;;5052119;28;20052;-67
2023/07/05 01:19:32;;;;;;;11.25;7.97;;;15.70;77.40;;;;;;5053289;28;20427;-67
2023/07/05 01:22:06;;;;;;;12.40;7.68;;;15.70;77.90;;;;;;5053063;28;20044;-67
2023/07/05 01:24:52;;;;;;;16.10;8.98;;;15.60;78.20;;;;;;5053502;28;20133;-67
2023/07/05 01:27:56;;;;;;;14.93;8.23;;;15.50;78.70;;;;;;5052775;28;20051;-67
2023/07/05 01:31:03;;;;;;;13.52;8.60;;;15.50;79.00;;;;;;5049074;28;20083;-67
2023/07/05 01:33:59;;;;;;;17.50;9.52;;;15.50;79.20;;;;;;4977926;28;20038;-67
2023/07/05 01:36:29;;;;;;;17.30;9.80;;;15.50;79.70;;;;;;4980951;28;20074;-67
2023/07/05 01:38:55;;;;;;;13.77;9.60;;;15.40;79.70;;;;;;5033967;28;20075;-66
2023/07/05 01:41:22;;;;;;;13.60;9.35;;;15.30;80.00;;;;;;5051996;28;20064;-67
2023/07/05 01:43:49;;;;;;;14.55;9.88;;;15.30;80.30;;;;;;5052869;28;20044;-67
2023/07/05 01:46:27;;;;;;;14.60;9.43;;;15.30;80.50;;;;;;5052642;28;20048;-67
2023/07/05 01:49:04;;;;;;;18.85;10.60;;;15.30;80.90;;;;;;5051242;28;20044;-67
2023/07/05 01:51:56;;;;;;;15.18;10.32;;;15.20;81.00;;;;;;5051593;28;20150;-67
2023/07/05 01:54:37;;;;;;;15.73;11.25;;;15.20;81.30;;;;;;5036173;28;20041;-67
2023/07/05 01:57:17;;;;;;;13.90;10.10;;;15.20;81.40;;;;;;5051916;28;20174;-67
2023/07/05 02:00:05;;;;;;;16.73;11.52;;;15.20;81.60;;;;;;5035977;28;20545;-67
2023/07/05 02:02:37;;;;;;;16.35;11.27;;;15.20;81.70;;;;;;5051243;28;20480;-67
2023/07/05 02:05:05;;;;;;;14.32;10.95;;;15.20;81.80;;;;;;5050579;28;20083;-68
2023/07/05 02:07:32;;;;;;;12.80;10.73;;;15.20;82.00;;;;;;5052617;28;20163;-67
2023/07/05 02:09:58;;;;;;;19.83;11.93;;;15.10;82.00;;;;;;5052578;28;20036;-66
2023/07/05 02:12:25;;;;;;;18.48;11.57;;;15.10;82.10;;;;;;5052959;28;20066;-67
2023/07/05 02:14:51;;;;;;;17.95;11.88;;;15.10;82.30;;;;;;5066351;28;20048;-67
2023/07/05 02:17:19;;;;;;;20.10;12.05;;;15.10;82.50;;;;;;5052871;28;20084;-67
2023/07/05 02:19:45;;;;;;;15.80;12.35;;;15.10;82.60;;;;;;5036161;28;20033;-67
2023/07/05 02:22:11;;;;;;;18.58;12.65;;;15.10;83.00;;;;;;5055104;28;20045;-67
2023/07/05 02:24:37;;;;;;;15.13;11.75;;;15.10;82.70;;;;;;5055762;28;20055;-67
2023/07/05 02:27:03;;;;;;;15.32;11.85;;;15.10;82.80;;;;;;5055115;28;20492;-67
2023/07/05 02:29:31;;;;;;;18.73;12.32;;;15.10;83.00;;;;;;5056029;28;20047;-67
2023/07/05 02:32:00;;;;;;;17.63;12.07;;;15.10;83.10;;;;;;5055720;28;20032;-67
2023/07/05 02:34:27;;;;;;;16.45;12.63;;;15.10;83.70;;;;;;5055963;28;20555;-67
2023/07/05 02:36:53;;;;;;;17.67;13.63;;;15.10;83.30;;;;;;5038556;28;20127;-67
2023/07/05 02:39:18;;;;;;;20.67;12.60;;;15.10;83.40;;;;;;5054211;28;20117;-67
2023/07/05 02:41:44;;;;;;;19.33;12.98;;;15.10;83.50;;;;;;5051788;28;20048;-67
2023/07/05 02:44:10;;;;;;;18.92;12.73;;;15.10;83.70;;;;;;5056015;28;20090;-67
2023/07/05 02:46:36;;;;;;;18.33;12.55;;;15.10;83.70;;;;;;5073693;28;20446;-67
2023/07/05 02:49:03;;;;;;;23.67;13.82;;;15.10;83.80;;;;;;5055756;28;20128;-67
2023/07/05 02:51:32;;;;;;;16.35;13.43;;;15.10;83.90;;;;;;5055433;28;20482;-67
2023/07/05 02:53:57;;;;;;;20.10;13.40;;;15.10;84.00;;;;;;5073726;28;20098;-67
2023/07/05 02:56:24;;;;;;;15.18;13.27;;;15.10;84.20;;;;;;5055642;28;20053;-67
2023/07/05 02:58:50;;;;;;;19.25;13.35;;;15.10;84.30;;;;;;5055551;28;20033;-68
2023/07/05 03:01:16;;;;;;;20.98;15.15;;;15.10;84.60;;;;;;5055179;28;20380;-68
2023/07/05 03:03:42;;;;;;;19.63;14.85;;;15.10;84.60;;;;;;5055521;28;20040;-69
2023/07/05 03:06:07;;;;;;;20.77;14.88;;;15.10;84.70;;;;;;5055515;28;20104;-69
2023/07/05 03:08:33;;;;;;;23.67;15.23;;;15.10;84.90;;;;;;5055402;28;20079;-68
2023/07/05 03:10:59;;;;;;;19.05;14.70;;;15.10;85.00;;;;;;5055149;28;20087;-68
2023/07/05 03:13:28;;;;;;;18.73;14.43;;;15.10;85.10;;;;;;5055433;28;20424;-68
2023/07/05 03:15:54;;;;;;;16.27;14.25;;;15.20;85.30;;;;;;5051736;28;20082;-68
2023/07/05 03:18:20;;;;;;;16.27;14.35;;;15.20;85.30;;;;;;5052258;28;20048;-68
2023/07/05 03:20:47;;;;;;;20.42;14.27;;;15.20;85.40;;;;;;5051762;28;20089;-69
2023/07/05 03:23:13;;;;;;;19.50;14.85;;;15.20;85.50;;;;;;5035208;28;20048;-68
2023/07/05 03:25:39;;;;;;;19.75;15.75;;;15.20;85.70;;;;;;5051799;28;20047;-68
2023/07/05 03:28:05;;;;;;;18.20;14.75;;;15.20;85.80;;;;;;5051413;28;20036;-68
2023/07/05 03:30:34;;;;;;;20.08;14.48;;;15.30;86.00;;;;;;5051138;28;20075;-68
2023/07/05 03:32:59;;;;;;;17.75;13.15;;;15.30;86.10;;;;;;5050345;28;20166;-68
2023/07/05 03:35:25;;;;;;;15.13;13.10;;;15.30;86.00;;;;;;5035199;28;20127;-68
2023/07/05 03:37:51;;;;;;;15.07;12.32;;;15.40;86.20;;;;;;5051636;28;20045;-68
2023/07/05 03:40:16;;;;;;;15.13;12.50;;;15.40;86.20;;;;;;5051522;28;20389;-68
2023/07/05 03:42:42;;;;;;;15.40;12.40;;;15.40;86.30;;;;;;5051592;28;20117;-68
2023/07/05 03:45:08;;;;;;;16.00;12.65;;;15.40;86.20;;;;;;5052686;28;20029;-69
2023/07/05 03:47:34;;;;;;;15.95;12.68;;;15.50;86.30;;;;;;5051013;28;20456;-68
2023/07/05 03:49:59;;;;;;;15.18;11.07;;;15.50;86.20;;;;;;5051374;28;20029;-68
2023/07/05 03:52:25;;;;;;;15.68;12.27;;;15.60;86.30;;;;;;5049325;28;20029;-69
2023/07/05 03:54:51;;;;;;;14.05;11.27;;;15.60;86.20;;;;;;5051374;28;20033;-68
2023/07/05 03:57:17;;;;;;;13.80;10.55;;;15.60;86.20;;;;;;5051000;28;20168;-68
2023/07/05 03:59:43;;;;;;;13.57;10.48;;;15.70;86.20;;;;;;5051317;28;20044;-68
2023/07/05 04:02:08;;;;;;;13.13;9.95;;;15.60;86.10;;;;;;5052178;28;20044;-68
2023/07/05 04:04:34;;;;;;;13.48;8.45;;;15.70;86.10;;;;;;5048190;28;20048;-68
2023/07/05 04:07:00;;;;;;;12.25;8.50;;;15.70;85.90;;;;;;5034517;28;20073;-68
2023/07/05 04:09:26;;;;;;;9.88;7.55;;;15.70;85.80;;;;;;5034291;28;20115;-68
2023/07/05 04:11:52;;;;;;;10.40;7.50;;;15.70;85.70;;;;;;5050680;28;20052;-68
2023/07/05 04:14:17;;;;;;;8.90;7.03;;;15.80;85.60;;;;;;5050960;28;20055;-68
2023/07/05 04:16:43;;;;;;;7.88;5.70;;;15.80;85.40;;;;;;5054085;28;20361;-68
2023/07/05 04:19:09;;;;;;;9.45;4.85;;;15.80;85.20;;;;;;5037069;28;20115;-68
2023/07/05 04:21:35;;;;;;;6.43;4.03;;;15.90;85.00;;;;;;5053850;28;20040;-68
2023/07/05 04:24:01;;;;;;;6.05;4.25;;;15.90;84.70;;;;;;5054023;28;20415;-68
2023/07/05 04:26:29;;;;;;;6.85;3.53;;;15.90;84.30;;;;;;5053913;28;20044;-68
2023/07/05 04:28:56;;;;;;;4.45;3.47;;;15.90;83.70;;;;;;5037118;28;20111;-68
2023/07/05 04:31:27;;;;;;;7.53;3.65;;;15.90;83.00;;;;;;5053435;28;20048;-68
2023/07/05 04:33:53;;;;;;;7.72;3.80;;;15.90;82.40;;;;;;5053573;28;20123;-68
2023/07/05 04:36:19;;;;;;;6.00;3.75;;;16.00;81.90;;;;;;5053970;28;20120;-68
2023/07/05 04:38:45;;;;;;;6.68;4.03;;;15.90;81.30;;;;;;5021155;28;20598;-68
2023/07/05 04:41:10;;;;;;;5.00;3.30;;;15.90;80.70;;;;;;5053443;28;20417;-68
2023/07/05 04:43:36;;;;;;;6.57;3.92;;;15.90;80.10;;;;;;5053366;28;20032;-68
2023/07/05 04:46:02;;;;;;;4.95;3.42;;;15.90;79.80;;;;;;5053618;28;20040;-68
2023/07/05 04:48:29;;;;;;;5.38;3.60;;;15.90;79.40;;;;;;5053678;28;20048;-68
2023/07/05 04:50:57;;;;;;;6.13;4.00;;;15.80;79.00;;;;;;5053242;28;20045;-68
2023/07/05 04:53:27;;;;;;;6.10;4.28;;;15.80;78.60;;;;;;5053030;28;20423;-68
2023/07/05 04:55:56;;;;;;;7.72;4.28;;;15.80;78.20;;;;;;5053323;28;20037;-68
2023/07/05 04:58:23;;;;;;;5.13;3.90;;;15.80;78.10;;;;;;5052567;28;20426;-68
2023/07/05 05:00:49;;;;;;;7.43;4.55;;;15.70;77.70;;;;;;5052575;28;20040;-68
2023/07/05 05:03:24;;;;;;;6.50;4.97;;;15.70;77.50;;;;;;5053218;28;20040;-68
2023/07/05 05:05:54;;;;;;;6.28;4.25;;;15.70;77.40;;;;;;5067493;28;20066;-68
2023/07/05 05:08:21;;;;;;;6.47;4.70;;;15.70;77.50;;;;;;5053028;28;20079;-68
2023/07/05 05:10:53;;;;;;;10.10;5.20;;;15.60;77.30;;;;;;5052616;28;20105;-68
2023/07/05 05:13:20;;;;;;;6.75;4.38;;;15.60;77.30;;;;;;5053481;28;20044;-68
2023/07/05 05:15:46;;;;;;;6.30;4.53;;;15.60;77.20;;;;;;5049640;28;20459;-68
2023/07/05 05:18:13;;;;;;;6.32;4.55;;;15.60;77.30;;;;;;5049977;28;20120;-68
2023/07/05 05:20:39;;;;;;;7.35;4.47;;;15.50;77.20;;;;;;5049924;28;20079;-68
2023/07/05 05:23:05;;;;;;;6.35;4.18;;;15.50;77.10;;;;;;5047137;28;20053;-68
2023/07/05 05:25:32;;;;;;;6.60;3.88;;;15.50;76.90;;;;;;5050039;28;20446;-68
2023/07/05 05:27:57;;;;;;;7.07;4.80;;;15.40;77.00;;;;;;5047225;28;20098;-68
2023/07/05 05:30:23;;;;;;;5.88;3.70;;;15.40;77.20;;;;;;5049450;28;20045;-69
2023/07/05 05:32:49;;;;;;;6.65;4.45;;;15.40;77.20;;;;;;5050864;28;20037;-69
2023/07/05 05:35:15;;;;;;;7.75;4.72;;;15.40;76.90;;;;;;5050662;28;20045;-69
2023/07/05 05:37:41;;;;;;;7.03;4.28;;;15.40;76.90;;;;;;5046226;28;20048;-69
2023/07/05 05:40:08;;;;;;;7.10;4.32;;;15.40;76.90;;;;;;5050782;28;20040;-69
2023/07/05 05:42:34;;;;;;;5.35;3.65;;;15.40;76.50;;;;;;5050899;28;20033;-69
2023/07/05 05:45:00;;;;;;;7.38;4.30;;;15.40;76.30;;;;;;5050578;28;20040;-69
2023/07/05 05:47:25;;;;;;;6.07;3.42;;;15.40;76.30;;;;;;5050154;28;20033;-69
2023/07/05 05:49:51;;;;;;;6.82;3.80;;;15.40;76.30;;;;;;5048886;28;20036;-69
2023/07/05 05:52:17;;;;;;;8.82;4.63;;;15.40;76.30;;;;;;5049530;28;20045;-69
2023/07/05 05:54:42;;;;;;;6.05;3.95;;;15.40;76.10;;;;;;5050562;28;20585;-69
2023/07/05 05:57:08;;;;;;;10.20;4.30;;;15.40;75.80;;;;;;5053801;28;20041;-69
2023/07/05 05:59:34;;;;;;;6.35;3.60;;;15.40;75.50;;;;;;5036709;28;20049;-68
2023/07/05 06:02:00;;;;;;;7.63;3.70;;;15.40;75.70;;;;;;5053286;28;20072;-71
2023/07/05 06:04:27;;;;;;;5.55;3.80;;;15.30;75.90;;;;;;5053732;28;20120;-68
2023/07/05 06:06:53;;;;;;;10.35;4.60;;;15.30;76.20;;;;;;5054322;28;20552;-67
2023/07/05 06:09:18;;;;;;;6.32;3.60;;;15.40;76.40;;;;;;5054050;28;20045;-67
2023/07/05 06:11:44;;;;;;;6.72;3.60;;;15.40;76.90;;;;;;5054097;28;20041;-67
2023/07/05 06:14:10;;;;;;;5.25;3.65;;;15.60;76.90;;;;;;5037988;28;20045;-67
2023/07/05 06:16:36;;;;;;;6.18;3.25;;;15.60;76.60;;;;;;5054044;28;20052;-67
2023/07/05 06:19:02;;;;;;;7.30;3.97;;;15.70;76.00;;;;;;5054073;28;20567;-67
2023/07/05 06:21:27;;;;;;;7.53;3.63;;;15.70;75.80;;;;;;5055375;28;20056;-67
2023/07/05 06:23:53;;;;;;;5.20;3.38;;;15.70;75.20;;;;;;5053980;28;20041;-67
2023/07/05 06:26:19;;;;;;;4.88;3.03;;;15.80;75.30;;;;;;5054062;28;20052;-67
2023/07/05 06:28:45;;;;;;;8.05;3.95;;;15.70;75.20;;;;;;5053881;28;20119;-66
2023/07/05 06:31:11;;;;;;;6.10;3.75;;;15.80;75.20;;;;;;5053888;28;20045;-67
2023/07/05 06:33:38;;;;;;;4.63;3.00;;;15.80;75.00;;;;;;5037087;28;20044;-67
2023/07/05 06:36:05;;;;;;;6.10;3.83;;;15.80;74.80;;;;;;5053815;28;20045;-67
2023/07/05 06:38:31;;;;;;;6.53;3.42;;;15.80;74.60;;;;;;5053667;28;20029;-67
2023/07/05 06:40:57;;;;;;;8.50;4.38;;;15.80;74.50;;;;;;5053539;28;20045;-67
2023/07/05 06:43:24;;;;;;;6.50;3.70;;;15.80;74.10;;;;;;5053891;28;20037;-67
2023/07/05 06:45:52;;;;;;;6.47;3.75;;;15.80;74.00;;;;;;5053863;28;20053;-67
2023/07/05 06:48:18;;;;;;;6.68;3.72;;;15.90;74.10;;;;;;5053530;28;20045;-67
2023/07/05 06:50:48;;;;;;;10.35;4.30;;;15.90;73.90;;;;;;5053466;28;20470;-67
2023/07/05 06:53:14;;;;;;;4.88;3.22;;;16.00;73.60;;;;;;5053745;28;20033;-68
2023/07/05 06:55:40;;;;;;;6.85;2.88;;;16.00;73.30;;;;;;5037299;28;20370;-68
2023/07/05 06:58:07;;;;;;;6.32;3.22;;;16.10;73.20;;;;;;5053327;28;20116;-68
2023/07/05 07:00:33;;;;;;;5.63;2.55;;;16.10;73.20;;;;;;5053719;28;20053;-68
2023/07/05 07:02:58;;;;;;;3.75;2.40;;;16.10;72.60;;;;;;5053388;28;20492;-68
2023/07/05 07:05:24;;;;;;;3.33;2.17;;;16.10;72.40;;;;;;5053026;28;20052;-68
2023/07/05 07:07:53;;;;;;;3.22;2.00;;;16.10;73.00;;;;;;5052912;28;20120;-68
2023/07/05 07:10:18;;;;;;;4.80;2.92;;;16.10;73.10;;;;;;5053104;28;20055;-68
2023/07/05 07:12:44;;;;;;;3.55;2.50;;;16.10;73.40;;;;;;5053518;28;20112;-68
2023/07/05 07:15:10;;;;;;;3.80;2.40;;;16.00;73.30;;;;;;5053316;28;20052;-68
2023/07/05 07:17:35;;;;;;;3.83;2.05;;;15.90;73.50;;;;;;5053080;28;20407;-68
2023/07/05 07:20:01;;;;;;;3.53;2.45;;;15.80;73.50;;;;;;5053043;28;20029;-68
2023/07/05 07:22:27;;;;;;;4.20;2.35;;;15.70;73.70;;;;;;5052887;28;20094;-68
2023/07/05 07:24:53;;;;;;;3.33;1.80;;;15.60;74.30;;;;;;5052933;28;20040;-68
2023/07/05 07:27:19;;;;;;;4.40;1.92;;;15.60;74.50;;;;;;5053396;28;20037;-68
2023/07/05 07:29:45;;;;;;;2.97;1.52;;;15.50;73.70;;;;;;5053165;28;20049;-68
2023/07/05 07:32:11;;;;;;;4.03;1.52;;;15.40;73.10;;;;;;5036090;28;20041;-68
2023/07/05 07:34:36;;;;;;;2.28;0.80;;;15.20;73.00;;;;;;5052573;28;20048;-68
2023/07/05 07:37:03;;;;;;;2.53;0.95;;;15.10;72.90;;;;;;5036113;28;20029;-69
2023/07/05 07:39:29;;;;;;;2.08;1.20;;;14.90;72.40;;;;;;5052751;28;20052;-69
2023/07/05 07:41:55;;;;;;;2.03;0.85;;;14.80;72.90;;;;;;5052573;28;20049;-69
2023/07/05 07:44:21;;;;;;;1.17;0.70;;;14.60;73.20;;;;;;5036414;28;20033;-69
2023/07/05 07:46:47;;;;;;;2.70;0.90;;;14.40;73.30;;;;;;5035780;28;20047;-69
2023/07/05 07:49:12;;;;;;;1.80;0.80;;;14.20;73.90;;;;;;5052815;28;20044;-68
2023/07/05 07:51:40;;;;;;;3.25;1.10;;;14.10;74.60;;;;;;5052199;28;20507;-68
2023/07/05 07:54:08;;;;;;;3.58;1.17;;;13.90;74.90;;;;;;5052290;28;20049;-70
2023/07/05 07:56:34;;;;;;;2.22;0.95;;;13.90;75.30;;;;;;5052326;28;20045;-70
2023/07/05 07:59:01;;;;;;;2.60;1.00;;;13.70;75.80;;;;;;5052182;28;20048;-70
2023/07/05 08:01:29;;;;;;;3.25;0.80;;;13.60;76.50;;;;;;5052383;28;20124;-70
2023/07/05 08:03:56;;;;;;;3.22;1.20;;;13.50;76.70;;;;;;5052087;28;20033;-69
2023/07/05 08:06:36;;;;;;;2.28;0.70;;;13.40;77.00;;;;;;5052282;28;20055;-69
2023/07/05 08:09:03;;;;;;;3.10;0.93;;;13.30;77.30;;;;;;5052013;28;20044;-69
2023/07/05 08:11:29;;;;;;;3.47;0.80;;;13.30;77.40;;;;;;5052191;28;20091;-69
2023/07/05 08:13:54;;;;;;;2.75;0.70;;;13.20;78.00;;;;;;5051922;28;20045;-69
2023/07/05 08:16:21;;;;;;;3.08;0.60;;;13.20;78.10;;;;;;5051660;28;20121;-70
2023/07/05 08:18:46;;;;;;;3.20;0.80;;;13.10;78.50;;;;;;5051357;28;20052;-70
2023/07/05 08:21:15;;;;;;;2.08;0.90;;;13.10;78.80;;;;;;5035205;28;20045;-70
2023/07/05 08:23:43;;;;;;;3.90;1.02;;;13.10;79.40;;;;;;5052127;28;20036;-70
2023/07/05 08:26:09;;;;;;;3.90;1.23;;;13.00;79.90;;;;;;5051936;28;20075;-70
2023/07/05 08:28:35;;;;;;;5.20;1.10;;;13.00;80.40;;;;;;5051444;28;20059;-70
2023/07/05 08:31:03;;;;;;;3.35;1.10;;;13.00;80.90;;;;;;5051632;28;20033;-70
2023/07/05 08:33:31;;;;;;;5.70;1.50;;;13.00;81.30;;;;;;5051889;28;20040;-70
2023/07/05 08:36:15;;;;;;;7.82;2.03;;;13.00;81.50;;;;;;5051687;28;20037;-69
2023/07/05 08:38:52;;;;;;;5.55;1.35;;;13.00;81.70;;;;;;5051532;28;20052;-69
2023/07/05 08:41:45;;;;;;;7.95;1.38;;;13.00;82.00;;;;;;5051530;28;20049;-69
2023/07/05 08:44:48;;;;;;;4.55;1.40;;;13.10;82.20;;;;;;5051578;28;20091;-69
2023/07/05 08:47:18;;;;;;;3.63;1.25;;;13.10;82.30;;;;;;5034752;28;20059;-69
2023/07/05 08:50:03;;;;;;;5.43;1.70;;;13.20;82.40;;;;;;5051195;28;20618;-69
2023/07/05 08:52:45;;;;;;;7.30;2.10;;;13.20;82.60;;;;;;5051131;28;20515;-69
2023/07/05 08:55:18;;;;;;;7.38;2.33;;;13.30;82.70;;;;;;5051504;28;20396;-69
2023/07/05 08:57:53;;;;;;;12.60;2.28;;;13.30;82.60;;;;;;5051192;28;20496;-69
2023/07/05 09:00:25;;;;;;;6.97;1.80;;;13.40;82.80;;;;;;5050998;28;20040;-69
2023/07/05 09:02:51;;;;;;;10.35;2.67;;;13.40;82.90;;;;;;5034458;28;20041;-69
2023/07/05 09:05:25;;;;;;;7.40;2.65;;;13.50;83.10;;;;;;5051238;28;20040;-69
2023/07/05 09:08:01;;;;;;;10.90;3.03;;;13.60;83.40;;;;;;5051167;28;20037;-67
2023/07/05 09:10:52;;;;;;;12.60;3.13;;;13.70;83.30;;;;;;5051102;28;20037;-67
2023/07/05 09:13:34;;;;;;;11.90;3.42;;;13.80;83.40;;;;;;5042067;28;20391;-67
2023/07/05 09:16:27;;;;;;;11.20;3.05;;;13.90;83.60;;;;;;5050732;28;20057;-67
2023/07/05 09:18:55;;;;;;;12.60;3.08;;;14.10;83.60;;;;;;5050891;28;20041;-67
2023/07/05 09:21:51;;;;;;;9.68;3.05;;;14.20;83.50;;;;;;5050933;28;20500;-71
2023/07/05 09:24:30;;;;;;;9.63;2.50;;;14.40;83.80;;;;;;5043980;28;20056;-70
2023/07/05 09:27:16;;;;;;;9.52;1.80;;;14.50;83.90;;;;;;5051094;28;20392;-70
2023/07/05 09:30:04;;;;;;;6.03;1.40;;;14.60;82.90;;;;;;5052462;28;20087;-70
2023/07/05 09:32:41;;;;;;;8.40;1.50;;;14.80;81.30;;;;;;5055001;28;20094;-70
2023/07/05 09:35:16;;;;;;;7.93;1.05;;;15.00;79.50;;;;;;5055146;28;20036;-70
2023/07/05 09:38:01;;;;;;;6.75;1.05;;;15.10;78.30;;;;;;5054958;28;20048;-70
2023/07/05 09:40:31;;;;;;;5.43;1.10;;;15.20;78.20;;;;;;5054801;28;20510;-70
2023/07/05 09:43:02;;;;;;;9.13;1.83;;;15.30;77.60;;;;;;5054718;28;20037;-70
2023/07/05 09:45:28;;;;;;;11.20;2.20;;;15.40;77.00;;;;;;5054825;28;20052;-70
2023/07/05 09:48:00;;;;;;;10.90;1.58;;;15.50;77.00;;;;;;5055790;28;20087;-70
2023/07/05 09:50:27;;;;;;;5.07;1.20;;;15.60;76.70;;;;;;5054735;28;20124;-70
2023/07/05 09:52:59;;;;;;;6.60;1.73;;;15.60;76.40;;;;;;5054776;28;20045;-70
2023/07/05 09:55:26;;;;;;;7.18;1.40;;;15.70;76.30;;;;;;5054905;28;20384;-70
2023/07/05 09:57:52;;;;;;;9.20;2.20;;;15.70;76.70;;;;;;5054569;28;20488;-70
2023/07/05 10:00:35;;;;;;;12.43;2.53;;;15.80;77.00;;;;;;5054546;28;20037;-70
2023/07/05 10:03:12;;;;;;;15.02;3.83;;;15.90;77.50;;;;;;5054255;28;21297;-70
2023/07/05 10:05:38;;;;;;;13.13;3.65;;;16.00;77.90;;;;;;5054723;28;20033;-70
2023/07/05 10:08:15;;;;;;;16.20;3.83;;;16.00;78.20;;;;;;5054656;28;20033;-70
2023/07/05 10:10:41;;;;;;;13.35;3.38;;;16.10;78.10;;;;;;5054324;28;20052;-70
2023/07/05 10:13:26;;;;;;;15.45;3.85;;;16.20;77.90;;;;;;5054308;28;20044;-70
2023/07/05 10:16:04;;;;;;;8.95;2.85;;;16.30;77.50;;;;;;5068754;28;20438;-69
2023/07/05 10:18:37;;;;;;;10.30;2.85;;;16.30;77.30;;;;;;5075217;28;20044;-69
2023/07/05 10:21:19;;;;;;;9.35;1.98;;;16.30;77.30;;;;;;5040892;28;20040;-69
2023/07/05 10:23:45;;;;;;;6.15;2.28;;;16.30;77.40;;;;;;5057323;28;20040;-69
2023/07/05 10:26:11;;;;;;;10.95;2.60;;;16.30;77.40;;;;;;5057331;28;20051;-69
2023/07/05 10:28:41;;;;;;;8.32;2.60;;;16.30;77.40;;;;;;5057169;28;20131;-69
2023/07/05 10:31:25;;;;;;;7.70;1.98;;;16.20;77.30;;;;;;5057302;28;20032;-69
2023/07/05 10:34:04;;;;;;;12.23;2.85;;;16.20;77.20;;;;;;5040299;28;20040;-69
2023/07/05 10:36:30;;;;;;;7.43;2.30;;;16.30;77.30;;;;;;5057330;28;20388;-69
2023/07/05 10:38:56;;;;;;;14.65;3.25;;;16.30;77.30;;;;;;5057145;28;20041;-69
2023/07/05 10:41:31;;;;;;;10.07;2.72;;;16.30;77.20;;;;;;5056474;28;20167;-69
2023/07/05 10:44:21;;;;;;;10.68;3.08;;;16.30;77.20;;;;;;5057131;28;20120;-69
2023/07/05 10:46:48;;;;;;;7.28;2.42;;;16.30;76.70;;;;;;5040398;28;20044;-69
2023/07/05 10:49:16;;;;;;;6.85;1.80;;;16.30;76.50;;;;;;5056683;28;20145;-69
2023/07/05 10:52:11;;;;;;;5.68;1.70;;;16.30;76.50;;;;;;5074764;28;20511;-69
2023/07/05 10:54:42;;;;;;;;;;;16.40;76.20;;;;;;5053204;28;20056;-66
2023/07/05 10:57:23;;;;;;;5.50;1.92;;;16.30;76.00;;;;;;5056780;28;19920;-67
2023/07/05 11:00:23;;;;;;;6.22;1.90;;;16.30;75.80;;;;;;5056570;28;20032;-67
2023/07/05 11:02:56;;;;;;;5.95;1.92;;;16.30;75.30;;;;;;5056400;28;20040;-67
2023/07/05 11:05:32;;;;;;;9.45;2.50;;;16.20;75.40;;;;;;5056687;28;20051;-67
2023/07/05 11:08:01;;;;;;;7.38;2.67;;;16.10;75.40;;;;;;5049125;28;20036;-66
2023/07/05 11:10:31;;;;;;;8.55;2.55;;;16.00;75.80;;;;;;5056746;28;20071;-66
2023/07/05 11:12:57;;;;;;;11.30;2.63;;;16.00;75.90;;;;;;5066595;28;20040;-66
2023/07/05 11:15:22;;;;;;;7.65;2.15;;;15.90;75.70;;;;;;5056265;28;20087;-67
2023/07/05 11:17:49;;;;;;;6.60;1.88;;;15.80;75.60;;;;;;5056435;28;20121;-66
2023/07/05 11:20:39;;;;;;;4.90;2.03;;;15.70;75.40;;;;;;5056441;28;20044;-66
2023/07/05 11:23:05;;;;;;;7.25;1.98;;;15.60;75.10;;;;;;5056072;28;20044;-66
2023/07/05 11:25:54;;;;;;;7.05;1.80;;;15.50;75.30;;;;;;5056323;28;20040;-66
2023/07/05 11:28:32;;;;;;;5.22;1.80;;;15.40;75.30;;;;;;5046026;28;20051;-66
2023/07/05 11:30:58;;;;;;;4.43;1.67;;;15.30;75.70;;;;;;5055901;28;20048;-66
2023/07/05 11:33:23;;;;;;;7.32;2.10;;;15.20;76.10;;;;;;5039639;28;20044;-66
2023/07/05 11:36:29;;;;;;;9.05;2.67;;;15.10;76.30;;;;;;5055971;28;20076;-67
2023/07/05 11:38:56;;;;;;;9.43;1.75;;;15.00;76.80;;;;;;5054566;28;20052;-66
2023/07/05 11:41:30;;;;;;;5.82;1.65;;;15.00;77.20;;;;;;5055977;28;20052;-66
2023/07/05 11:44:03;;;;;;;5.80;1.70;;;14.90;77.60;;;;;;5055933;28;20143;-66
2023/07/05 11:46:48;;;;;;;4.72;1.60;;;14.80;77.80;;;;;;5055898;28;20072;-66
2023/07/05 11:49:20;;;;;;;5.25;1.73;;;14.80;78.20;;;;;;5039427;28;20045;-66
2023/07/05 11:51:49;;;;;;;6.45;1.88;;;14.70;78.70;;;;;;5055514;28;20076;-66
2023/07/05 11:54:17;;;;;;;8.07;2.90;;;14.70;78.70;;;;;;5054656;28;20403;-68
2023/07/05 11:56:45;;;;;;;7.65;2.65;;;14.70;79.10;;;;;;5038948;28;20046;-68
2023/07/05 11:59:14;;;;;;;6.55;2.17;;;14.70;79.70;;;;;;5055765;28;20043;-69
2023/07/05 12:01:41;;;;;;;8.40;2.13;;;14.70;79.30;;;;;;5055784;28;20040;-69
2023/07/05 12:04:17;;;;;;;6.38;2.15;;;14.70;79.40;;;;;;5055181;28;20048;-69
2023/07/05 12:06:44;;;;;;;7.85;2.60;;;14.70;79.60;;;;;;5055775;28;20446;-69
2023/07/05 12:09:17;;;;;;;7.38;2.47;;;14.70;79.90;;;;;;5055295;28;20126;-68
2023/07/05 12:11:44;;;;;;;5.25;1.75;;;14.70;79.90;;;;;;5055430;28;20072;-68
2023/07/05 12:14:19;;;;;;;7.53;2.25;;;14.80;79.70;;;;;;5055296;28;20043;-68
2023/07/05 12:16:45;;;;;;;7.25;2.10;;;14.80;79.90;;;;;;5055010;28;20047;-68
2023/07/05 12:19:21;;;;;;;5.75;2.15;;;14.80;79.80;;;;;;5054976;28;20051;-68
2023/07/05 12:21:55;;;;;;;13.82;3.08;;;14.80;79.70;;;;;;5055357;28;20044;-68
2023/07/05 12:24:21;;;;;;;8.18;2.95;;;14.90;79.70;;;;;;5055117;28;20040;-69
2023/07/05 12:26:47;;;;;;;8.40;2.20;;;14.90;79.80;;;;;;5055152;28;20036;-69
2023/07/05 12:29:39;;;;;;;5.68;1.75;;;14.90;80.00;;;;;;5054787;28;20510;-69
2023/07/05 12:32:07;;;;;;;5.80;1.80;;;14.90;79.80;;;;;;5051088;28;20123;-69
2023/07/05 12:34:33;;;;;;;6.20;2.10;;;14.90;79.70;;;;;;5054566;28;20075;-69
2023/07/05 12:37:00;;;;;;;4.97;2.30;;;14.90;79.60;;;;;;5054766;28;20047;-69
2023/07/05 12:39:25;;;;;;;6.10;1.95;;;15.00;79.50;;;;;;5055113;28;20040;-69
2023/07/05 12:42:03;;;;;;;8.18;2.30;;;14.90;79.20;;;;;;5055150;28;20051;-69
2023/07/05 12:44:30;;;;;;;8.55;3.08;;;15.00;79.30;;;;;;5054833;28;20044;-69
2023/07/05 12:47:19;;;;;;;8.85;2.47;;;14.90;79.30;;;;;;5055072;28;20045;-69
2023/07/05 12:49:45;;;;;;;11.07;2.80;;;15.00;79.50;;;;;;5049010;28;20174;-69
2023/07/05 12:52:22;;;;;;;12.20;3.30;;;14.90;79.40;;;;;;5054552;28;20135;-69
2023/07/05 12:54:48;;;;;;;8.30;2.75;;;15.00;79.60;;;;;;5054769;28;20040;-69
2023/07/05 12:57:33;;;;;;;11.32;3.08;;;15.00;79.60;;;;;;5053808;28;20186;-68